createdAt,value
2023-05-21T00:01:23.781Z,97114.63
2023-05-21T00:05:26.427Z,97101.50
2023-05-21T00:09:31.144Z,97099.25
2023-05-21T00:13:33.817Z,97104.22
2023-05-21T00:17:37.222Z,97090.63
2023-05-21T00:21:39.887Z,97087.09
2023-05-21T00:25:43.839Z,97087.91
2023-05-21T00:29:46.436Z,97087.25
2023-05-21T00:33:49.102Z,97085.31
2023-05-21T00:37:52.040Z,97074.00
2023-05-21T00:41:56.875Z,97088.72
2023-05-21T00:45:59.933Z,97082.69
2023-05-21T00:50:03.785Z,97082.09
2023-05-21T00:54:06.680Z,97076.09
2023-05-21T00:58:11.075Z,97076.72
2023-05-21T01:02:14.289Z,97082.50
2023-05-21T01:06:17.071Z,97074.06
2023-05-21T01:10:19.731Z,97082.53
2023-05-21T01:14:25.096Z,97079.22
2023-05-21T01:18:28.126Z,97074.81
2023-05-21T01:22:33.192Z,97075.84
2023-05-21T01:26:39.019Z,97075.53
2023-05-21T01:30:43.766Z,97076.63
2023-05-21T01:34:53.536Z,97070.56
2023-05-21T01:39:02.062Z,97070.25
2023-05-21T01:43:09.237Z,97071.13
2023-05-21T01:47:12.156Z,97057.00
2023-05-21T01:51:15.696Z,97058.94
2023-05-21T01:55:19.097Z,97059.19
2023-05-21T01:59:23.095Z,97066.78
2023-05-21T02:03:28.019Z,97062.06
2023-05-21T02:07:33.806Z,97060.69
2023-05-21T02:11:36.469Z,97063.88
2023-05-21T02:15:40.537Z,97065.09
2023-05-21T02:19:44.764Z,97063.72
2023-05-21T02:23:47.424Z,97062.03
2023-05-21T02:27:53.717Z,97059.84
2023-05-21T02:31:57.787Z,97065.22
2023-05-21T02:36:00.433Z,97066.56
2023-05-21T02:40:05.989Z,97060.81
2023-05-21T02:44:08.645Z,97060.25
2023-05-21T02:48:12.708Z,97060.56
2023-05-21T02:52:15.464Z,97059.41
2023-05-21T02:56:18.602Z,97061.94
2023-05-21T03:00:21.524Z,97056.69
2023-05-21T03:04:28.284Z,97060.72
2023-05-21T03:08:31.942Z,97051.50
2023-05-21T03:12:34.642Z,97044.09
2023-05-21T03:16:38.012Z,97057.09
2023-05-21T03:20:43.792Z,97057.53
2023-05-21T03:24:46.417Z,97056.63
2023-05-21T03:28:49.021Z,97055.06
2023-05-21T03:32:51.695Z,97052.91
2023-05-21T03:36:55.717Z,97056.13
2023-05-21T03:40:58.339Z,97048.22
2023-05-21T03:45:01.022Z,97052.81
2023-05-21T03:49:03.676Z,97043.50
2023-05-21T03:53:07.626Z,97053.09
2023-05-21T03:57:11.007Z,97048.47
2023-05-21T04:01:13.638Z,97055.06
2023-05-21T04:05:16.240Z,97047.69
2023-05-21T04:09:20.203Z,97054.84
2023-05-21T04:13:22.855Z,97061.16
2023-05-21T04:17:26.868Z,97055.16
2023-05-21T04:21:29.606Z,97057.97
2023-05-21T04:25:34.179Z,97050.28
2023-05-21T04:29:37.693Z,97058.22
2023-05-21T04:33:42.120Z,97053.41
2023-05-21T04:37:46.023Z,97066.00
2023-05-21T04:41:50.805Z,97063.31
2023-05-21T04:45:54.976Z,97054.09
2023-05-21T04:49:59.488Z,97058.00
2023-05-21T04:54:03.503Z,97062.94
2023-05-21T04:58:08.095Z,97055.06
2023-05-21T05:02:10.780Z,97055.13
2023-05-21T05:06:13.436Z,97057.09
2023-05-21T05:10:16.236Z,97057.19
2023-05-21T05:14:20.195Z,97059.72
2023-05-21T05:18:22.830Z,97065.81
2023-05-21T05:22:25.472Z,97055.53
2023-05-21T05:26:28.096Z,97065.44
2023-05-21T05:30:32.227Z,97063.03
2023-05-21T05:34:35.044Z,97070.75
2023-05-21T05:38:37.670Z,97066.19
2023-05-21T05:42:40.350Z,97069.00
2023-05-21T05:46:44.402Z,97065.25
2023-05-21T05:50:47.443Z,97062.59
2023-05-21T05:54:50.072Z,97061.28
2023-05-21T05:58:52.686Z,97072.00
2023-05-21T06:02:56.769Z,97067.69
2023-05-21T06:06:59.958Z,97070.97
2023-05-21T06:11:03.047Z,97068.00
2023-05-21T06:15:07.057Z,97074.84
2023-05-21T06:19:11.049Z,97061.53
2023-05-21T06:23:14.008Z,97062.94
2023-05-21T06:27:16.654Z,97055.56
2023-05-21T06:31:22.349Z,97066.00
2023-05-21T06:35:26.862Z,97060.53
2023-05-21T06:39:29.503Z,97058.63
2023-05-21T06:43:32.135Z,97063.00
2023-05-21T06:47:34.817Z,97060.84
2023-05-21T06:51:38.839Z,97060.28
2023-05-21T06:55:41.998Z,97061.13
2023-05-21T06:59:44.686Z,97060.88
2023-05-21T07:03:47.337Z,97058.44
2023-05-21T07:07:51.392Z,97066.16
2023-05-21T07:11:54.177Z,97050.56
2023-05-21T07:15:56.896Z,97060.66
2023-05-21T07:19:59.732Z,97062.78
2023-05-21T07:24:03.970Z,97060.53
2023-05-21T07:28:06.864Z,97062.34
2023-05-21T07:32:09.557Z,97060.88
2023-05-21T07:36:12.192Z,97065.94
2023-05-21T07:40:16.425Z,97061.97
2023-05-21T07:44:19.960Z,97059.91
2023-05-21T07:48:22.983Z,97053.41
2023-05-21T07:52:25.710Z,97055.34
2023-05-21T07:56:29.733Z,97054.47
2023-05-21T08:00:43.670Z,97066.78
2023-05-21T08:04:46.380Z,97064.03
2023-05-21T08:08:49.115Z,97066.84
2023-05-21T08:12:53.093Z,97067.72
2023-05-21T08:16:56.039Z,97066.13
2023-05-21T08:20:58.657Z,97067.38
2023-05-21T08:25:01.417Z,97062.63
2023-05-21T08:29:05.382Z,97060.13
2023-05-21T08:33:08.066Z,97067.09
2023-05-21T08:37:10.670Z,97070.66
2023-05-21T08:41:14.028Z,97062.66
2023-05-21T08:45:21.986Z,97067.41
2023-05-21T08:49:27.960Z,97061.41
2023-05-21T08:53:30.988Z,97059.41
2023-05-21T08:57:33.735Z,97059.81
2023-05-21T09:01:38.232Z,97068.28
2023-05-21T09:05:42.013Z,97060.84
2023-05-21T09:09:50.028Z,97055.59
2023-05-21T09:13:55.212Z,97063.47
2023-05-21T09:17:59.255Z,97050.81
2023-05-21T09:22:05.965Z,97060.69
2023-05-21T09:26:13.461Z,97069.19
2023-05-21T09:30:18.148Z,97054.38
2023-05-21T09:34:22.927Z,97064.09
2023-05-21T09:38:26.920Z,97059.97
2023-05-21T09:42:31.319Z,97051.84
2023-05-21T09:46:41.010Z,97046.84
2023-05-21T09:50:45.885Z,97047.88
2023-05-21T09:54:48.909Z,97051.06
2023-05-21T09:58:54.709Z,97046.63
2023-05-21T10:02:58.760Z,97042.59
2023-05-21T10:07:02.969Z,97045.41
2023-05-21T10:11:07.944Z,97045.72
2023-05-21T10:15:15.157Z,97042.69
2023-05-21T10:19:18.252Z,97047.38
2023-05-21T10:23:24.387Z,97046.88
2023-05-21T10:27:29.395Z,97039.34
2023-05-21T10:31:34.871Z,97044.81
2023-05-21T10:35:41.343Z,97038.69
2023-05-21T10:39:46.901Z,97036.84
2023-05-21T10:43:57.838Z,97036.50
2023-05-21T10:48:24.682Z,97041.34
2023-05-21T10:52:40.930Z,97029.25
2023-05-21T10:56:49.796Z,97024.72
2023-05-21T11:00:54.775Z,97026.00
2023-05-21T11:04:59.871Z,97017.47
2023-05-21T11:09:03.044Z,97018.19
2023-05-21T11:13:16.564Z,97017.59
2023-05-21T11:17:38.986Z,97019.81
2023-05-21T11:21:41.729Z,97018.19
2023-05-21T11:25:44.341Z,97019.66
2023-05-21T11:29:48.887Z,97014.25
2023-05-21T11:34:16.224Z,97022.84
2023-05-21T11:38:19.955Z,97012.34
2023-05-21T11:42:33.033Z,97016.16
2023-05-21T11:46:39.474Z,97033.16
2023-05-21T11:50:42.476Z,97023.00
2023-05-21T11:54:48.587Z,97024.03
2023-05-21T11:58:55.776Z,97016.34
2023-05-21T12:02:59.937Z,97021.94
2023-05-21T12:07:05.271Z,97016.47
2023-05-21T12:11:08.050Z,97016.13
2023-05-21T12:15:13.102Z,97016.88
2023-05-21T12:19:19.872Z,97011.06
2023-05-21T12:23:24.848Z,97015.72
2023-05-21T12:27:28.297Z,97006.94
2023-05-21T12:35:38.523Z,97006.63
2023-05-21T12:39:42.462Z,97013.53
2023-05-21T12:43:45.173Z,97011.50
2023-05-21T12:47:50.152Z,97015.19
2023-05-21T12:51:57.626Z,97016.56
2023-05-21T12:56:09.071Z,97021.94
2023-05-21T13:00:12.885Z,97023.72
2023-05-21T13:04:15.897Z,97021.03
2023-05-21T13:08:20.117Z,97024.88
2023-05-21T13:12:23.890Z,97013.66
2023-05-21T13:16:26.610Z,97011.06
2023-05-21T13:20:29.493Z,96998.38
2023-05-21T13:24:33.541Z,97000.22
2023-05-21T13:28:36.154Z,97000.53
2023-05-21T13:32:39.995Z,96992.69
2023-05-21T13:36:42.857Z,96996.94
2023-05-21T13:40:46.824Z,96992.06
2023-05-21T13:44:50.304Z,96997.31
2023-05-21T13:48:52.919Z,97004.66
2023-05-21T13:52:55.529Z,97001.56
2023-05-21T13:56:59.955Z,96998.31
2023-05-21T14:01:02.719Z,96995.53
2023-05-21T14:05:05.832Z,96988.25
2023-05-21T14:09:08.813Z,96991.06
2023-05-21T14:13:19.746Z,96984.19
2023-05-21T14:17:22.958Z,96984.63
2023-05-21T14:21:26.381Z,96988.75
2023-05-21T14:25:29.056Z,96982.63
2023-05-21T14:29:33.654Z,96983.59
2023-05-21T14:33:38.223Z,96979.00
2023-05-21T14:37:42.657Z,96986.16
2023-05-21T14:41:45.324Z,96966.47
2023-05-21T14:45:50.176Z,96972.16
2023-05-21T14:49:52.617Z,96967.41
2023-05-21T14:53:57.875Z,96971.69
2023-05-21T14:58:00.642Z,96966.09
2023-05-21T15:02:04.835Z,96954.09
2023-05-21T15:06:07.715Z,96968.50
2023-05-21T15:10:11.044Z,96966.75
2023-05-21T15:14:13.771Z,96957.06
2023-05-21T15:18:19.906Z,96954.84
2023-05-21T15:22:22.674Z,96964.06
2023-05-21T15:26:27.974Z,96961.84
2023-05-21T15:30:30.692Z,96948.91
2023-05-21T15:34:34.924Z,96949.31
2023-05-21T15:38:37.632Z,96955.72
2023-05-21T15:42:40.586Z,96946.47
2023-05-21T15:46:43.690Z,96950.28
2023-05-21T15:50:47.711Z,96948.31
2023-05-21T15:54:50.403Z,96946.28
2023-05-21T15:58:53.806Z,96942.47
2023-05-21T16:02:56.458Z,96941.34
2023-05-21T16:07:00.612Z,96934.16
2023-05-21T16:11:03.215Z,96938.56
2023-05-21T16:15:06.782Z,96936.44
2023-05-21T16:19:09.438Z,96933.78
2023-05-21T16:23:13.392Z,96934.19
2023-05-21T16:27:16.263Z,96925.72
2023-05-21T16:31:18.921Z,96927.72
2023-05-21T16:35:21.703Z,96927.56
2023-05-21T16:39:25.670Z,96922.00
2023-05-21T16:43:28.283Z,96927.56
2023-05-21T16:47:30.883Z,96922.50
2023-05-21T16:51:33.924Z,96927.06
2023-05-21T16:55:38.727Z,96920.88
2023-05-21T16:59:41.763Z,96919.25
2023-05-21T17:03:44.479Z,96917.31
2023-05-21T17:07:47.294Z,96921.72
2023-05-21T17:11:51.301Z,96907.38
2023-05-21T17:15:54.019Z,96911.56
2023-05-21T17:19:56.996Z,96919.53
2023-05-21T17:23:59.592Z,96926.81
2023-05-21T17:28:03.598Z,96913.25
2023-05-21T17:32:07.796Z,96917.44
2023-05-21T17:36:10.468Z,96928.00
2023-05-21T17:40:13.796Z,96929.69
2023-05-21T17:44:18.528Z,96937.50
2023-05-21T17:48:21.514Z,96934.06
2023-05-21T17:52:24.174Z,96941.13
2023-05-21T17:56:27.386Z,96941.13
2023-05-21T18:00:32.110Z,96947.28
2023-05-21T18:04:35.040Z,96947.13
2023-05-21T18:08:37.861Z,96951.03
2023-05-21T18:12:40.530Z,96947.41
2023-05-21T18:16:44.553Z,96955.69
2023-05-21T18:20:47.235Z,96949.34
2023-05-21T18:24:49.896Z,96943.97
2023-05-21T18:28:52.592Z,96947.47
2023-05-21T18:32:56.963Z,96949.50
2023-05-21T18:37:00.461Z,96951.25
2023-05-21T18:41:04.747Z,96956.16
2023-05-21T18:45:08.750Z,96947.53
2023-05-21T18:49:12.734Z,96956.69
2023-05-21T18:53:15.691Z,96949.09
2023-05-21T18:57:19.640Z,96973.50
2023-05-21T19:01:22.514Z,96972.25
2023-05-21T19:05:26.665Z,96976.84
2023-05-21T19:09:29.341Z,96975.44
2023-05-21T19:13:32.727Z,96980.88
2023-05-21T19:17:36.339Z,96991.28
2023-05-21T19:21:40.585Z,96994.03
2023-05-21T19:25:43.268Z,97004.72
2023-05-21T19:29:46.236Z,97000.22
2023-05-21T19:33:49.417Z,97002.75
2023-05-21T19:37:54.637Z,97012.41
2023-05-21T19:41:57.491Z,97014.97
2023-05-21T19:46:00.259Z,97005.06
2023-05-21T19:50:03.383Z,97010.88
2023-05-21T19:54:07.532Z,97016.09
2023-05-21T19:58:13.370Z,97012.00
2023-05-21T20:02:17.122Z,97024.88
2023-05-21T20:06:20.857Z,97017.56
2023-05-21T20:10:24.997Z,97020.84
2023-05-21T20:14:27.644Z,97013.09
2023-05-21T20:18:30.441Z,97016.38
2023-05-21T20:22:33.143Z,97021.09
2023-05-21T20:26:37.127Z,97022.00
2023-05-21T20:30:53.630Z,97027.50
2023-05-21T20:35:03.440Z,97028.63
2023-05-21T20:39:07.122Z,97022.63
2023-05-21T20:43:13.729Z,97021.88
2023-05-21T20:47:16.377Z,97021.69
2023-05-21T20:51:19.029Z,97024.16
2023-05-21T20:55:21.813Z,97022.00
2023-05-21T20:59:26.914Z,97031.16
2023-05-21T21:03:30.515Z,97024.06
2023-05-21T21:07:34.196Z,97031.47
2023-05-21T21:11:37.142Z,97023.84
2023-05-21T21:15:41.275Z,97029.38
2023-05-21T21:19:43.975Z,97032.69
2023-05-21T21:23:46.650Z,97030.25
2023-05-21T21:27:49.406Z,97035.19
2023-05-21T21:31:53.590Z,97032.72
2023-05-21T21:35:56.440Z,97034.38
2023-05-21T21:39:59.152Z,97023.41
2023-05-21T21:44:01.810Z,97031.09
2023-05-21T21:48:06.235Z,97026.44
2023-05-21T21:52:10.789Z,97035.75
2023-05-21T21:56:13.493Z,97040.97
2023-05-21T22:00:19.399Z,97026.75
2023-05-21T22:04:23.401Z,97021.25
2023-05-21T22:08:28.398Z,97035.75
2023-05-21T22:12:31.024Z,97034.69
2023-05-21T22:16:34.272Z,97027.00
2023-05-21T22:20:38.646Z,97029.47
2023-05-21T22:24:41.539Z,97027.81
2023-05-21T22:28:44.219Z,97027.00
2023-05-21T22:32:47.436Z,97031.09
2023-05-21T22:36:51.574Z,97028.09
2023-05-21T22:40:54.550Z,97019.34
2023-05-21T22:44:57.216Z,97025.34
2023-05-21T22:49:00.188Z,97021.22
2023-05-21T22:53:04.170Z,97018.50
2023-05-21T22:57:06.807Z,97025.03
2023-05-21T23:01:09.421Z,97026.41
2023-05-21T23:05:12.029Z,97030.75
2023-05-21T23:09:16.037Z,97024.22
2023-05-21T23:13:18.648Z,97024.19
2023-05-21T23:17:21.540Z,97019.78
2023-05-21T23:21:24.229Z,97030.19
2023-05-21T23:25:28.225Z,97026.00
2023-05-21T23:29:31.358Z,97028.13
2023-05-21T23:33:34.041Z,97014.41
2023-05-21T23:37:36.671Z,97017.41
2023-05-21T23:41:40.686Z,97019.50
2023-05-21T23:45:43.327Z,97019.03
2023-05-21T23:49:45.994Z,97021.22
2023-05-21T23:53:48.632Z,97015.47
2023-05-21T23:57:52.650Z,97011.38
